createdAt,value
2018-04-14T00:02:16.943Z,10.20
2018-04-14T00:04:44.468Z,10.20
2018-04-14T00:07:12.088Z,10.10
2018-04-14T00:09:39.654Z,10.10
2018-04-14T00:12:07.177Z,10.10
2018-04-14T00:14:35.473Z,10.10
2018-04-14T00:17:03.035Z,10.10
2018-04-14T00:19:30.569Z,10.00
2018-04-14T00:21:58.861Z,10.00
2018-04-14T00:24:27.274Z,9.90
2018-04-14T00:26:54.810Z,9.90
2018-04-14T00:29:22.331Z,9.90
2018-04-14T00:31:50.656Z,9.90
2018-04-14T00:34:18.194Z,9.90
2018-04-14T00:36:46.518Z,10.00
2018-04-14T00:39:14.166Z,10.00
2018-04-14T00:41:41.704Z,10.00
2018-04-14T00:44:09.240Z,10.00
2018-04-14T00:46:36.784Z,10.00
2018-04-14T00:49:04.318Z,10.00
2018-04-14T00:51:31.870Z,10.00
2018-04-14T00:53:59.400Z,9.90
2018-04-14T00:56:27.684Z,9.90
2018-04-14T00:58:55.269Z,9.90
2018-04-14T01:01:22.826Z,9.90
2018-04-14T01:03:50.388Z,9.90
2018-04-14T01:06:17.910Z,9.90
2018-04-14T01:08:46.226Z,10.00
2018-04-14T01:11:13.760Z,9.90
2018-04-14T01:13:42.058Z,9.90
2018-04-14T01:16:09.606Z,9.90
2018-04-14T01:18:37.186Z,9.90
2018-04-14T01:21:04.718Z,9.90
2018-04-14T01:23:33.024Z,9.70
2018-04-14T01:26:00.555Z,9.60
2018-04-14T01:28:28.853Z,9.50
2018-04-14T01:30:56.389Z,9.50
2018-04-14T01:33:24.675Z,9.40
2018-04-14T01:35:52.973Z,9.40
2018-04-14T01:38:20.514Z,9.40
2018-04-14T01:40:48.794Z,9.50
2018-04-14T01:43:17.084Z,9.60
2018-04-14T01:45:44.628Z,9.50
2018-04-14T01:48:12.928Z,9.70
2018-04-14T01:50:40.464Z,9.60
2018-04-14T01:53:08.776Z,9.70
2018-04-14T01:55:36.304Z,9.60
2018-04-14T01:58:04.612Z,9.70
2018-04-14T02:00:32.138Z,9.70
2018-04-14T02:03:00.446Z,9.70
2018-04-14T02:05:27.970Z,9.70
2018-04-14T02:07:55.514Z,9.70
2018-04-14T02:10:23.139Z,9.70
2018-04-14T02:12:50.651Z,9.60
2018-04-14T02:15:18.948Z,9.60
2018-04-14T02:17:47.233Z,9.50
2018-04-14T02:20:14.806Z,9.50
2018-04-14T02:22:42.367Z,9.50
2018-04-14T02:25:09.897Z,9.50
2018-04-14T02:27:38.199Z,9.40
2018-04-14T02:30:05.762Z,9.40
2018-04-14T02:32:33.291Z,9.30
2018-04-14T02:35:01.586Z,9.20
2018-04-14T02:37:29.136Z,9.20
2018-04-14T02:39:57.453Z,9.10
2018-04-14T02:42:24.989Z,9.10
2018-04-14T02:44:52.781Z,9.10
2018-04-14T02:47:20.347Z,9.10
2018-04-14T02:49:47.908Z,9.10
2018-04-14T02:52:15.487Z,9.00
2018-04-14T02:54:42.985Z,9.00
2018-04-14T02:57:11.278Z,9.00
2018-04-14T02:59:38.815Z,8.90
2018-04-14T03:02:07.116Z,8.90
2018-04-14T03:04:34.695Z,8.90
2018-04-14T03:07:02.243Z,8.90
2018-04-14T03:09:29.780Z,8.90
2018-04-14T03:11:58.078Z,8.90
2018-04-14T03:14:25.625Z,8.90
2018-04-14T03:16:53.909Z,8.80
2018-04-14T03:19:21.433Z,8.80
2018-04-14T03:21:48.979Z,8.80
2018-04-14T03:24:16.521Z,8.80
2018-04-14T03:26:44.045Z,8.70
2018-04-14T03:29:12.355Z,8.70
2018-04-14T03:31:39.921Z,8.70
2018-04-14T03:34:07.441Z,8.70
2018-04-14T03:36:35.747Z,8.70
2018-04-14T03:39:03.277Z,8.70
2018-04-14T03:41:31.588Z,8.80
2018-04-14T03:43:59.140Z,8.80
2018-04-14T03:46:26.717Z,8.80
2018-04-14T03:48:54.250Z,8.90
2018-04-14T03:51:21.804Z,8.90
2018-04-14T03:53:50.090Z,8.90
2018-04-14T03:56:17.652Z,8.90
2018-04-14T03:58:45.191Z,9.00
2018-04-14T04:01:13.500Z,9.00
2018-04-14T04:03:41.034Z,9.00
2018-04-14T04:06:09.338Z,9.10
2018-04-14T04:08:36.913Z,9.10
2018-04-14T04:11:04.460Z,9.10
2018-04-14T04:13:32.004Z,9.10
2018-04-14T04:16:00.409Z,9.10
2018-04-14T04:18:39.954Z,9.10
2018-04-14T04:21:19.336Z,9.10
2018-04-14T04:23:59.554Z,9.20
2018-04-14T04:26:27.941Z,9.10
2018-04-14T04:28:55.489Z,9.20
2018-04-14T04:31:23.024Z,9.20
2018-04-14T04:33:51.427Z,9.20
2018-04-14T04:36:18.978Z,9.20
2018-04-14T04:38:46.524Z,9.20
2018-04-14T04:41:14.812Z,9.20
2018-04-14T04:43:42.386Z,9.20
2018-04-14T04:46:09.946Z,9.30
2018-04-14T04:48:37.510Z,9.30
2018-04-14T04:51:05.055Z,9.30
2018-04-14T04:53:32.612Z,9.30
2018-04-14T04:56:00.180Z,9.30
2018-04-14T04:58:27.704Z,9.30
2018-04-14T05:00:55.238Z,9.20
2018-04-14T05:03:22.892Z,9.20
2018-04-14T05:05:50.428Z,9.20
2018-04-14T05:08:18.022Z,9.10
2018-04-14T05:10:45.552Z,9.00
2018-04-14T05:13:13.081Z,9.00
2018-04-14T05:15:41.391Z,9.10
2018-04-14T05:18:08.920Z,9.10
2018-04-14T05:20:36.464Z,9.10
2018-04-14T05:23:04.026Z,9.10
2018-04-14T05:25:31.557Z,9.10
2018-04-14T05:27:59.090Z,9.10
2018-04-14T05:30:26.636Z,9.10
2018-04-14T05:32:54.939Z,9.00
2018-04-14T05:35:22.466Z,9.00
2018-04-14T05:37:50.777Z,9.00
2018-04-14T05:40:18.304Z,9.00
2018-04-14T05:42:46.643Z,9.00
2018-04-14T05:45:14.174Z,9.00
2018-04-14T05:47:41.836Z,9.00
2018-04-14T05:50:09.373Z,9.10
2018-04-14T05:52:37.669Z,9.30
2018-04-14T05:55:05.207Z,9.20
2018-04-14T05:57:33.511Z,9.40
2018-04-14T06:00:01.867Z,9.40
2018-04-14T06:02:29.441Z,9.40
2018-04-14T06:04:57.023Z,9.40
2018-04-14T06:07:24.562Z,9.50
2018-04-14T06:09:52.101Z,9.50
2018-04-14T06:12:20.027Z,9.60
2018-04-14T06:14:47.585Z,9.60
2018-04-14T06:17:15.139Z,9.70
2018-04-14T06:19:42.687Z,9.70
2018-04-14T06:22:10.272Z,9.70
2018-04-14T06:24:37.792Z,9.80
2018-04-14T06:27:05.315Z,9.80
2018-04-14T06:29:32.937Z,9.90
2018-04-14T06:32:00.477Z,10.00
2018-04-14T06:34:28.022Z,10.00
2018-04-14T06:36:56.323Z,10.20
2018-04-14T06:39:24.115Z,10.20
2018-04-14T06:41:52.726Z,10.30
2018-04-14T06:44:21.029Z,10.30
2018-04-14T06:46:49.333Z,10.40
2018-04-14T06:49:16.877Z,10.40
2018-04-14T06:51:44.455Z,10.40
2018-04-14T06:54:11.998Z,10.50
2018-04-14T06:56:40.285Z,10.60
2018-04-14T06:59:07.844Z,10.60
2018-04-14T07:01:35.384Z,10.70
2018-04-14T07:04:03.700Z,10.80
2018-04-14T07:06:31.251Z,10.80
2018-04-14T07:08:58.794Z,10.80
2018-04-14T07:11:27.093Z,10.90
2018-04-14T07:13:54.652Z,10.90
2018-04-14T07:16:22.176Z,11.00
2018-04-14T07:18:50.497Z,11.10
2018-04-14T07:21:18.041Z,11.20
2018-04-14T07:23:45.622Z,11.20
2018-04-14T07:26:13.178Z,11.30
2018-04-14T07:28:40.728Z,11.30
2018-04-14T07:31:08.262Z,11.30
2018-04-14T07:33:36.786Z,11.50
2018-04-14T07:36:05.370Z,11.50
2018-04-14T07:38:32.901Z,11.50
2018-04-14T07:41:00.520Z,11.60
2018-04-14T07:43:35.205Z,11.70
2018-04-14T07:46:02.742Z,11.70
2018-04-14T07:48:38.075Z,11.80
2018-04-14T07:51:10.922Z,11.80
2018-04-14T07:53:40.217Z,11.90
2018-04-14T07:56:17.603Z,12.00
2018-04-14T08:01:46.984Z,12.20
2018-04-14T08:04:15.287Z,12.40
2018-04-14T08:06:42.874Z,12.40
2018-04-14T08:09:10.418Z,12.60
2018-04-14T08:11:45.710Z,12.70
2018-04-14T08:14:13.243Z,12.70
2018-04-14T08:16:40.791Z,12.80
2018-04-14T08:19:08.444Z,12.90
2018-04-14T08:21:35.984Z,13.00
2018-04-14T08:24:03.524Z,13.00
2018-04-14T08:26:32.819Z,13.20
2018-04-14T08:29:01.144Z,13.30
2018-04-14T08:31:28.711Z,13.20
2018-04-14T08:33:56.261Z,13.20
2018-04-14T08:36:23.800Z,13.10
2018-04-14T08:38:51.382Z,13.10
2018-04-14T08:41:18.939Z,13.20
2018-04-14T08:43:46.477Z,13.30
2018-04-14T08:46:14.768Z,13.60
2018-04-14T08:48:42.315Z,13.50
2018-04-14T08:51:10.721Z,13.70
2018-04-14T08:53:38.270Z,13.70
2018-04-14T08:57:17.714Z,14.00
2018-04-14T08:59:45.251Z,14.30
2018-04-14T09:02:13.555Z,14.80
2018-04-14T09:04:41.094Z,14.80
2018-04-14T09:07:09.397Z,15.30
2018-04-14T09:09:36.923Z,15.20
2018-04-14T09:12:05.246Z,15.80
2018-04-14T09:14:32.773Z,15.80
2018-04-14T09:17:01.081Z,15.80
2018-04-14T09:19:28.626Z,15.80
2018-04-14T09:21:56.507Z,15.70
2018-04-14T09:24:24.046Z,15.70
2018-04-14T09:26:52.463Z,16.20
2018-04-14T09:29:19.997Z,16.20
2018-04-14T09:31:47.530Z,16.50
2018-04-14T09:34:15.837Z,16.60
2018-04-14T09:36:43.444Z,16.60
2018-04-14T09:39:11.000Z,16.90
2018-04-14T09:41:38.548Z,17.20
2018-04-14T09:44:06.074Z,17.20
2018-04-14T09:46:33.613Z,17.50
2018-04-14T09:49:01.917Z,17.80
2018-04-14T09:51:29.448Z,17.80
2018-04-14T09:53:56.991Z,17.70
2018-04-14T09:56:24.556Z,17.60
2018-04-14T09:58:52.110Z,17.50
2018-04-14T10:01:25.468Z,17.50
2018-04-14T10:03:53.596Z,17.60
2018-04-14T10:06:21.125Z,17.70
2018-04-14T10:08:48.677Z,17.80
2018-04-14T10:11:16.216Z,17.60
2018-04-14T10:13:43.787Z,17.40
2018-04-14T10:16:11.357Z,17.30
2018-04-14T10:18:38.890Z,17.40
2018-04-14T10:21:06.416Z,17.70
2018-04-14T10:23:33.970Z,17.90
2018-04-14T10:26:01.526Z,18.10
2018-04-14T10:28:29.062Z,18.00
2018-04-14T10:30:56.613Z,18.10
2018-04-14T10:33:24.164Z,18.10
2018-04-14T10:35:51.708Z,17.90
2018-04-14T10:38:19.282Z,17.80
2018-04-14T10:40:46.821Z,17.90
2018-04-14T10:43:14.367Z,18.00
2018-04-14T10:45:42.677Z,18.20
2018-04-14T10:48:10.209Z,18.20
2018-04-14T10:50:38.520Z,17.90
2018-04-14T10:53:06.059Z,17.90
2018-04-14T10:55:34.362Z,18.20
2018-04-14T10:58:01.934Z,18.10
2018-04-14T11:00:29.484Z,18.20
2018-04-14T11:02:57.021Z,18.30
2018-04-14T11:05:24.561Z,18.20
2018-04-14T11:07:52.899Z,17.80
2018-04-14T11:10:20.441Z,17.80
2018-04-14T11:12:47.973Z,17.80
2018-04-14T11:15:16.301Z,18.10
2018-04-14T11:17:43.841Z,18.10
2018-04-14T11:20:11.381Z,18.20
2018-04-14T11:22:38.959Z,18.50
2018-04-14T11:25:06.498Z,18.60
2018-04-14T11:27:34.031Z,18.80
2018-04-14T11:30:02.344Z,18.50
2018-04-14T11:32:29.876Z,18.50
2018-04-14T11:34:58.210Z,19.20
2018-04-14T11:37:25.918Z,19.20
2018-04-14T11:39:54.232Z,18.20
2018-04-14T11:42:21.782Z,18.20
2018-04-14T11:44:49.360Z,18.30
2018-04-14T11:47:16.898Z,18.30
2018-04-14T11:49:44.454Z,18.20
2018-04-14T11:52:12.006Z,18.30
2018-04-14T11:54:40.306Z,18.70
2018-04-14T11:57:07.870Z,18.70
2018-04-14T11:59:35.415Z,18.90
2018-04-14T12:02:02.954Z,19.20
2018-04-14T12:04:31.248Z,18.90
2018-04-14T12:06:58.818Z,18.90
2018-04-14T12:09:26.352Z,18.20
2018-04-14T12:11:54.667Z,18.10
2018-04-14T12:14:23.642Z,18.00
2018-04-14T12:16:51.172Z,18.30
2018-04-14T12:19:18.698Z,18.20
2018-04-14T12:21:46.250Z,18.40
2018-04-14T12:24:13.783Z,18.30
2018-04-14T12:26:41.359Z,18.50
2018-04-14T12:29:08.886Z,19.00
2018-04-14T12:31:37.329Z,19.80
2018-04-14T12:34:04.873Z,19.80
2018-04-14T12:36:32.417Z,20.00
2018-04-14T12:38:59.947Z,20.30
2018-04-14T12:41:28.357Z,20.80
2018-04-14T12:43:55.915Z,20.80
2018-04-14T12:46:24.807Z,20.90
2018-04-14T12:48:53.054Z,20.70
2018-04-14T12:51:21.360Z,20.70
2018-04-14T12:53:48.894Z,20.60
2018-04-14T12:56:17.212Z,20.50
2018-04-14T12:58:44.780Z,20.50
2018-04-14T13:01:12.314Z,20.70
2018-04-14T13:03:39.861Z,20.80
2018-04-14T13:06:07.403Z,20.40
2018-04-14T13:08:35.696Z,20.30
2018-04-14T13:11:04.014Z,20.70
2018-04-14T13:13:31.691Z,20.70
2018-04-14T13:15:59.239Z,21.20
2018-04-14T13:18:26.762Z,21.70
2018-04-14T13:20:54.313Z,21.70
2018-04-14T13:23:22.724Z,21.20
2018-04-14T13:25:50.278Z,21.20
2018-04-14T13:28:17.838Z,21.20
2018-04-14T13:30:45.394Z,21.50
2018-04-14T13:33:12.926Z,21.80
2018-04-14T13:35:41.242Z,22.30
2018-04-14T13:38:08.893Z,22.30
2018-04-14T13:40:36.434Z,22.50
2018-04-14T13:43:04.740Z,22.10
2018-04-14T13:45:32.274Z,22.10
2018-04-14T13:48:00.582Z,22.30
2018-04-14T13:50:28.239Z,22.20
2018-04-14T13:52:55.781Z,22.40
2018-04-14T13:55:23.328Z,22.40
2018-04-14T13:57:51.733Z,21.50
2018-04-14T14:00:19.682Z,21.50
2018-04-14T14:02:47.965Z,19.80
2018-04-14T14:05:15.491Z,19.70
2018-04-14T14:07:43.113Z,19.80
2018-04-14T14:10:10.642Z,19.90
2018-04-14T14:12:38.954Z,19.90
2018-04-14T14:15:06.476Z,19.90
2018-04-14T14:17:34.775Z,20.80
2018-04-14T14:20:02.332Z,20.80
2018-04-14T14:22:29.904Z,21.10
2018-04-14T14:24:57.571Z,21.30
2018-04-14T14:27:25.124Z,21.20
2018-04-14T14:29:52.652Z,20.00
2018-04-14T14:32:20.942Z,19.60
2018-04-14T14:34:48.516Z,19.60
2018-04-14T14:37:16.181Z,19.60
2018-04-14T14:39:43.730Z,19.90
2018-04-14T14:42:11.298Z,20.10
2018-04-14T14:44:38.833Z,20.30
2018-04-14T14:47:07.143Z,20.10
2018-04-14T14:49:34.713Z,20.10
2018-04-14T14:52:02.234Z,20.30
2018-04-14T14:54:30.524Z,20.00
2018-04-14T14:56:58.063Z,19.90
2018-04-14T14:59:26.368Z,19.40
2018-04-14T15:01:59.781Z,19.40
2018-04-14T15:04:27.945Z,19.20
2018-04-14T15:06:55.481Z,19.00
2018-04-14T15:09:23.888Z,19.50
2018-04-14T15:11:51.456Z,19.50
2018-04-14T15:14:18.991Z,19.70
2018-04-14T15:16:46.525Z,19.70
2018-04-14T15:19:14.838Z,19.90
2018-04-14T15:21:42.354Z,19.90
2018-04-14T15:24:09.888Z,20.00
2018-04-14T15:26:37.435Z,19.90
2018-04-14T15:29:04.952Z,20.00
2018-04-14T15:31:33.245Z,19.60
2018-04-14T15:34:00.817Z,19.60
2018-04-14T15:36:28.344Z,19.60
2018-04-14T15:38:56.643Z,19.50
2018-04-14T15:41:24.213Z,19.50
2018-04-14T15:43:51.745Z,19.50
2018-04-14T15:46:20.059Z,19.60
2018-04-14T15:48:47.605Z,19.60
2018-04-14T15:51:15.124Z,19.60
2018-04-14T15:53:42.737Z,19.50
2018-04-14T15:56:10.274Z,19.40
2018-04-14T15:58:37.844Z,19.20
2018-04-14T16:01:05.388Z,19.00
2018-04-14T16:03:33.820Z,19.00
2018-04-14T16:06:01.355Z,19.00
2018-04-14T16:08:28.894Z,19.00
2018-04-14T16:10:56.427Z,19.00
2018-04-14T16:13:24.040Z,18.80
2018-04-14T16:15:51.594Z,18.90
2018-04-14T16:18:19.130Z,19.00
2018-04-14T16:20:47.635Z,19.10
2018-04-14T16:23:15.200Z,19.10
2018-04-14T16:25:42.745Z,19.10
2018-04-14T16:28:10.280Z,19.20
2018-04-14T16:30:38.589Z,19.10
2018-04-14T16:33:06.141Z,19.00
2018-04-14T16:35:33.712Z,18.90
2018-04-14T16:38:01.277Z,18.80
2018-04-14T16:40:28.817Z,18.70
2018-04-14T16:42:56.346Z,18.60
2018-04-14T16:45:23.969Z,18.60
2018-04-14T16:47:51.528Z,18.60
2018-04-14T16:50:19.075Z,18.50
2018-04-14T16:52:46.616Z,18.40
2018-04-14T16:55:14.169Z,18.20
2018-04-14T16:57:42.455Z,17.90
2018-04-14T17:00:09.989Z,17.90
2018-04-14T17:02:38.308Z,17.70
2018-04-14T17:05:05.882Z,17.70
2018-04-14T17:07:33.396Z,17.70
2018-04-14T17:10:01.702Z,17.60
2018-04-14T17:12:29.238Z,17.60
2018-04-14T17:14:57.543Z,17.50
2018-04-14T17:17:25.080Z,17.50
2018-04-14T17:19:53.380Z,17.40
2018-04-14T17:22:20.944Z,17.40
2018-04-14T17:24:48.483Z,17.40
2018-04-14T17:27:16.014Z,17.40
2018-04-14T17:29:43.555Z,17.30
2018-04-14T17:32:11.189Z,17.30
2018-04-14T17:34:38.710Z,17.20
2018-04-14T17:37:06.998Z,17.20
2018-04-14T17:39:35.401Z,17.20
2018-04-14T17:42:02.943Z,17.20
2018-04-14T17:44:30.509Z,17.20
2018-04-14T17:46:58.112Z,17.20
2018-04-14T17:49:25.628Z,17.20
2018-04-14T17:51:53.161Z,17.20
2018-04-14T17:54:21.471Z,17.10
2018-04-14T17:56:48.999Z,17.10
2018-04-14T17:59:17.287Z,17.10
2018-04-14T18:01:45.599Z,17.10
2018-04-14T18:04:13.120Z,17.10
2018-04-14T18:06:41.429Z,17.00
2018-04-14T18:09:08.981Z,17.00
2018-04-14T18:11:36.512Z,17.00
2018-04-14T18:14:04.799Z,16.80
2018-04-14T18:16:33.205Z,16.70
2018-04-14T18:19:00.735Z,16.70
2018-04-14T18:21:29.040Z,16.70
2018-04-14T18:23:56.582Z,16.60
2018-04-14T18:26:24.124Z,16.60
2018-04-14T18:28:52.428Z,16.60
2018-04-14T18:31:19.999Z,16.50
2018-04-14T18:33:47.530Z,16.60
2018-04-14T18:36:15.847Z,16.40
2018-04-14T18:38:43.405Z,16.40
2018-04-14T18:41:10.963Z,16.30
2018-04-14T18:43:38.536Z,16.30
2018-04-14T18:46:06.107Z,16.20
2018-04-14T18:48:33.643Z,15.90
2018-04-14T18:51:01.196Z,15.50
2018-04-14T18:53:28.746Z,15.20
2018-04-14T18:55:56.269Z,15.10
2018-04-14T18:58:23.895Z,15.10
2018-04-14T19:00:51.439Z,14.80
2018-04-14T19:03:18.970Z,14.70
2018-04-14T19:05:47.273Z,14.50
2018-04-14T19:08:14.817Z,14.50
2018-04-14T19:10:42.362Z,14.40
2018-04-14T19:13:10.649Z,14.00
2018-04-14T19:15:38.240Z,13.90
2018-04-14T19:18:06.512Z,13.80
2018-04-14T19:20:34.051Z,13.80
2018-04-14T19:23:01.581Z,13.80
2018-04-14T19:25:29.128Z,13.60
2018-04-14T19:27:56.764Z,13.40
2018-04-14T19:30:24.355Z,13.40
2018-04-14T19:32:51.870Z,13.30
2018-04-14T19:35:19.431Z,13.10
2018-04-14T19:37:47.087Z,13.00
2018-04-14T19:40:27.759Z,13.00
2018-04-14T19:42:59.760Z,13.00
2018-04-14T19:45:37.497Z,12.90
2018-04-14T19:48:05.731Z,12.90
2018-04-14T19:50:33.253Z,12.90
2018-04-14T19:53:00.779Z,12.90
2018-04-14T19:55:29.108Z,13.00
2018-04-14T19:57:56.671Z,13.00
2018-04-14T20:00:24.212Z,13.10
2018-04-14T20:02:51.778Z,13.10
2018-04-14T20:05:19.320Z,13.00
2018-04-14T20:07:46.855Z,13.10
2018-04-14T20:10:14.403Z,13.10
2018-04-14T20:12:41.930Z,13.10
2018-04-14T20:15:09.461Z,13.10
2018-04-14T20:17:36.994Z,13.10
2018-04-14T20:20:04.544Z,13.00
2018-04-14T20:22:32.174Z,13.00
2018-04-14T20:24:59.712Z,13.10
2018-04-14T20:27:27.280Z,13.10
2018-04-14T20:29:54.839Z,13.20
2018-04-14T20:32:22.462Z,13.20
2018-04-14T20:34:50.789Z,13.20
2018-04-14T20:37:18.319Z,13.20
2018-04-14T20:39:45.905Z,13.10
2018-04-14T20:42:13.451Z,13.10
2018-04-14T20:44:40.993Z,13.10
2018-04-14T20:47:09.409Z,13.00
2018-04-14T20:49:37.067Z,13.00
2018-04-14T20:52:04.601Z,13.00
2018-04-14T20:54:32.922Z,12.90
2018-04-14T20:57:00.581Z,12.90
2018-04-14T20:59:28.124Z,12.90
2018-04-14T21:01:55.700Z,12.90
2018-04-14T21:04:23.237Z,12.90
2018-04-14T21:06:50.807Z,12.90
2018-04-14T21:09:18.358Z,12.90
2018-04-14T21:11:45.885Z,12.90
2018-04-14T21:14:14.190Z,12.90
2018-04-14T21:16:41.766Z,12.80
2018-04-14T21:19:09.321Z,12.90
2018-04-14T21:21:36.853Z,12.90
2018-04-14T21:24:05.172Z,12.90
2018-04-14T21:26:32.718Z,12.90
2018-04-14T21:29:00.253Z,13.00
2018-04-14T21:31:28.549Z,13.00
2018-04-14T21:33:56.120Z,13.00
2018-04-14T21:36:23.657Z,13.00
2018-04-14T21:38:51.213Z,12.90
2018-04-14T21:41:19.515Z,12.90
2018-04-14T21:43:47.045Z,12.90
2018-04-14T21:46:15.460Z,13.00
2018-04-14T21:48:43.001Z,13.00
2018-04-14T21:51:10.536Z,13.10
2018-04-14T21:53:38.850Z,13.00
2018-04-14T21:56:06.390Z,13.00
2018-04-14T21:58:33.927Z,13.10
2018-04-14T22:01:02.232Z,13.10
2018-04-14T22:03:29.815Z,13.10
2018-04-14T22:05:57.366Z,13.10
2018-04-14T22:08:24.918Z,13.10
2018-04-14T22:10:52.449Z,13.10
2018-04-14T22:13:20.747Z,13.10
2018-04-14T22:15:49.161Z,13.20
2018-04-14T22:18:16.682Z,13.10
2018-04-14T22:20:44.989Z,13.20
2018-04-14T22:23:12.525Z,13.20
2018-04-14T22:25:40.056Z,13.20
2018-04-14T22:28:09.213Z,13.20
2018-04-14T22:30:36.743Z,13.20
2018-04-14T22:33:04.271Z,13.20
2018-04-14T22:35:31.805Z,13.20
2018-04-14T22:37:59.446Z,13.10
2018-04-14T22:40:26.984Z,13.20
2018-04-14T22:42:54.571Z,13.10
2018-04-14T22:45:22.124Z,13.10
2018-04-14T22:47:49.659Z,13.10
2018-04-14T22:50:17.959Z,13.10
2018-04-14T22:52:45.491Z,13.20
2018-04-14T22:55:13.786Z,13.20
2018-04-14T22:57:41.309Z,13.20
2018-04-14T23:00:08.930Z,13.20
2018-04-14T23:02:36.482Z,13.20
2018-04-14T23:05:04.008Z,13.20
2018-04-14T23:07:32.431Z,13.20
2018-04-14T23:09:59.963Z,13.20
2018-04-14T23:12:27.495Z,13.20
2018-04-14T23:14:55.032Z,13.20
2018-04-14T23:17:22.670Z,13.20
2018-04-14T23:19:50.218Z,13.20
2018-04-14T23:22:17.784Z,13.20
2018-04-14T23:24:45.314Z,13.20
2018-04-14T23:27:13.721Z,13.20
2018-04-14T23:29:41.262Z,13.20
2018-04-14T23:32:08.842Z,13.20
2018-04-14T23:34:36.412Z,13.20
2018-04-14T23:37:03.958Z,13.20
2018-04-14T23:39:31.489Z,13.20
2018-04-14T23:41:59.781Z,13.20
2018-04-14T23:44:28.178Z,13.30
2018-04-14T23:46:55.714Z,13.20
2018-04-14T23:49:24.028Z,13.20
2018-04-14T23:51:51.581Z,13.20
2018-04-14T23:54:19.119Z,13.20
2018-04-14T23:56:46.654Z,13.20
2018-04-14T23:59:14.204Z,13.20
